sensor_id;sensor_type;location;lat;lon;timestamp;temperature;humidity
9041;DHT22;4555;49.918;7.012;2022-10-31T00:00:17;10.10;99.90
9041;DHT22;4555;49.918;7.012;2022-10-31T00:02:43;10.10;99.90
9041;DHT22;4555;49.918;7.012;2022-10-31T00:05:09;10.10;99.90
9041;DHT22;4555;49.918;7.012;2022-10-31T00:07:34;10.10;99.90
9041;DHT22;4555;49.918;7.012;2022-10-31T00:10:00;10.10;99.90
9041;DHT22;4555;49.918;7.012;2022-10-31T00:12:26;10.10;99.90
9041;DHT22;4555;49.918;7.012;2022-10-31T00:14:52;10.10;99.90
9041;DHT22;4555;49.918;7.012;2022-10-31T00:17:17;10.00;99.90
9041;DHT22;4555;49.918;7.012;2022-10-31T00:19:43;10.00;99.90
9041;DHT22;4555;49.918;7.012;2022-10-31T00:22:08;10.00;99.90
9041;DHT22;4555;49.918;7.012;2022-10-31T00:24:34;9.90;99.90
9041;DHT22;4555;49.918;7.012;2022-10-31T00:27:00;10.00;99.90
9041;DHT22;4555;49.918;7.012;2022-10-31T00:29:26;10.00;99.90
9041;DHT22;4555;49.918;7.012;2022-10-31T00:31:52;10.00;99.90
9041;DHT22;4555;49.918;7.012;2022-10-31T00:34:18;10.00;99.90
9041;DHT22;4555;49.918;7.012;2022-10-31T00:36:44;10.00;99.90
9041;DHT22;4555;49.918;7.012;2022-10-31T00:39:12;10.00;99.90
9041;DHT22;4555;49.918;7.012;2022-10-31T00:41:38;10.00;99.90
9041;DHT22;4555;49.918;7.012;2022-10-31T00:44:09;10.00;99.90
9041;DHT22;4555;49.918;7.012;2022-10-31T00:46:35;10.10;99.90
9041;DHT22;4555;49.918;7.012;2022-10-31T00:49:01;10.10;99.90
9041;DHT22;4555;49.918;7.012;2022-10-31T00:51:26;10.10;99.90
9041;DHT22;4555;49.918;7.012;2022-10-31T00:53:52;10.10;99.90
9041;DHT22;4555;49.918;7.012;2022-10-31T00:56:17;10.10;99.90
9041;DHT22;4555;49.918;7.012;2022-10-31T00:58:44;10.10;99.90
9041;DHT22;4555;49.918;7.012;2022-10-31T01:01:09;10.20;99.90
9041;DHT22;4555;49.918;7.012;2022-10-31T01:03:35;10.10;99.90
9041;DHT22;4555;49.918;7.012;2022-10-31T01:06:07;11.50;99.90
9041;DHT22;4555;49.918;7.012;2022-10-31T01:08:33;10.00;99.90
9041;DHT22;4555;49.918;7.012;2022-10-31T01:11:12;9.90;99.90
9041;DHT22;4555;49.918;7.012;2022-10-31T01:13:39;9.90;99.90
9041;DHT22;4555;49.918;7.012;2022-10-31T01:16:07;9.90;99.90
9041;DHT22;4555;49.918;7.012;2022-10-31T01:18:33;9.90;99.90
9041;DHT22;4555;49.918;7.012;2022-10-31T01:23:28;10.00;99.90
9041;DHT22;4555;49.918;7.012;2022-10-31T01:26:05;11.20;99.90
9041;DHT22;4555;49.918;7.012;2022-10-31T01:28:32;10.00;99.90
9041;DHT22;4555;49.918;7.012;2022-10-31T01:31:01;10.00;99.90
9041;DHT22;4555;49.918;7.012;2022-10-31T01:33:27;9.90;99.90
9041;DHT22;4555;49.918;7.012;2022-10-31T01:35:52;9.90;99.90
9041;DHT22;4555;49.918;7.012;2022-10-31T01:38:18;10.00;99.90
9041;DHT22;4555;49.918;7.012;2022-10-31T01:40:43;9.90;99.90
9041;DHT22;4555;49.918;7.012;2022-10-31T01:43:13;10.00;99.90
9041;DHT22;4555;49.918;7.012;2022-10-31T01:45:39;9.90;99.90
9041;DHT22;4555;49.918;7.012;2022-10-31T01:48:11;9.90;99.90
9041;DHT22;4555;49.918;7.012;2022-10-31T01:50:38;9.90;99.90
9041;DHT22;4555;49.918;7.012;2022-10-31T01:53:06;12.50;99.90
9041;DHT22;4555;49.918;7.012;2022-10-31T01:55:39;9.90;99.90
9041;DHT22;4555;49.918;7.012;2022-10-31T01:58:14;9.90;99.90
9041;DHT22;4555;49.918;7.012;2022-10-31T02:00:47;12.40;99.90
9041;DHT22;4555;49.918;7.012;2022-10-31T02:03:15;11.90;99.90
9041;DHT22;4555;49.918;7.012;2022-10-31T02:05:42;9.90;99.90
9041;DHT22;4555;49.918;7.012;2022-10-31T02:08:23;10.00;99.90
9041;DHT22;4555;49.918;7.012;2022-10-31T02:10:50;10.00;99.90
9041;DHT22;4555;49.918;7.012;2022-10-31T02:13:17;9.90;99.90
9041;DHT22;4555;49.918;7.012;2022-10-31T02:15:49;9.80;99.90
9041;DHT22;4555;49.918;7.012;2022-10-31T02:18:17;9.90;99.90
9041;DHT22;4555;49.918;7.012;2022-10-31T02:26:54;10.00;99.90
9041;DHT22;4555;49.918;7.012;2022-10-31T02:35:02;10.20;99.90
9041;DHT22;4555;49.918;7.012;2022-10-31T02:37:57;10.20;99.90
9041;DHT22;4555;49.918;7.012;2022-10-31T02:40:52;10.20;99.90
9041;DHT22;4555;49.918;7.012;2022-10-31T02:43:55;10.30;99.90
9041;DHT22;4555;49.918;7.012;2022-10-31T02:46:35;10.20;99.90
9041;DHT22;4555;49.918;7.012;2022-10-31T02:49:16;10.10;99.90
9041;DHT22;4555;49.918;7.012;2022-10-31T02:51:44;10.10;99.90
9041;DHT22;4555;49.918;7.012;2022-10-31T02:54:23;10.10;99.90
9041;DHT22;4555;49.918;7.012;2022-10-31T02:57:01;10.10;99.90
9041;DHT22;4555;49.918;7.012;2022-10-31T02:59:29;10.10;99.90
9041;DHT22;4555;49.918;7.012;2022-10-31T03:02:14;10.10;99.90
9041;DHT22;4555;49.918;7.012;2022-10-31T03:05:01;10.10;99.90
9041;DHT22;4555;49.918;7.012;2022-10-31T03:13:33;10.10;99.90
9041;DHT22;4555;49.918;7.012;2022-10-31T03:15:54;10.20;99.90
9041;DHT22;4555;49.918;7.012;2022-10-31T03:18:30;10.20;99.90
9041;DHT22;4555;49.918;7.012;2022-10-31T03:21:09;10.20;99.90
9041;DHT22;4555;49.918;7.012;2022-10-31T03:23:36;10.20;99.90
9041;DHT22;4555;49.918;7.012;2022-10-31T03:26:05;10.20;99.90
9041;DHT22;4555;49.918;7.012;2022-10-31T03:28:39;10.20;99.90
9041;DHT22;4555;49.918;7.012;2022-10-31T03:31:07;11.10;99.90
9041;DHT22;4555;49.918;7.012;2022-10-31T03:33:36;10.10;99.90
9041;DHT22;4555;49.918;7.012;2022-10-31T03:36:05;11.80;99.90
9041;DHT22;4555;49.918;7.012;2022-10-31T03:38:32;10.10;99.90
9041;DHT22;4555;49.918;7.012;2022-10-31T03:41:03;10.10;99.90
9041;DHT22;4555;49.918;7.012;2022-10-31T03:43:33;10.10;99.90
9041;DHT22;4555;49.918;7.012;2022-10-31T03:46:02;10.10;99.90
9041;DHT22;4555;49.918;7.012;2022-10-31T03:48:28;10.90;99.90
9041;DHT22;4555;49.918;7.012;2022-10-31T03:53:27;10.10;99.90
9041;DHT22;4555;49.918;7.012;2022-10-31T03:56:02;10.00;99.90
9041;DHT22;4555;49.918;7.012;2022-10-31T03:58:38;10.00;99.90
9041;DHT22;4555;49.918;7.012;2022-10-31T04:01:07;10.00;99.90
9041;DHT22;4555;49.918;7.012;2022-10-31T04:03:37;10.10;99.90
9041;DHT22;4555;49.918;7.012;2022-10-31T04:06:08;10.10;99.90
9041;DHT22;4555;49.918;7.012;2022-10-31T04:08:40;10.00;99.90
9041;DHT22;4555;49.918;7.012;2022-10-31T04:11:11;10.00;99.90
9041;DHT22;4555;49.918;7.012;2022-10-31T04:13:41;10.10;99.90
9041;DHT22;4555;49.918;7.012;2022-10-31T04:16:14;10.00;99.90
9041;DHT22;4555;49.918;7.012;2022-10-31T04:18:40;10.00;99.90
9041;DHT22;4555;49.918;7.012;2022-10-31T04:21:07;9.90;99.90
9041;DHT22;4555;49.918;7.012;2022-10-31T04:23:34;9.80;99.90
9041;DHT22;4555;49.918;7.012;2022-10-31T04:26:10;9.70;99.90
9041;DHT22;4555;49.918;7.012;2022-10-31T04:28:37;9.60;99.90
9041;DHT22;4555;49.918;7.012;2022-10-31T04:31:02;9.60;99.90
9041;DHT22;4555;49.918;7.012;2022-10-31T04:33:29;9.50;99.90
9041;DHT22;4555;49.918;7.012;2022-10-31T04:35:55;9.50;99.90
9041;DHT22;4555;49.918;7.012;2022-10-31T04:38:20;9.60;99.90
9041;DHT22;4555;49.918;7.012;2022-10-31T04:40:47;9.60;99.90
9041;DHT22;4555;49.918;7.012;2022-10-31T04:43:39;9.60;99.90
9041;DHT22;4555;49.918;7.012;2022-10-31T04:46:05;9.60;99.90
9041;DHT22;4555;49.918;7.012;2022-10-31T04:48:31;9.70;99.90
9041;DHT22;4555;49.918;7.012;2022-10-31T04:51:00;12.20;99.90
9041;DHT22;4555;49.918;7.012;2022-10-31T04:53:27;9.80;99.90
9041;DHT22;4555;49.918;7.012;2022-10-31T04:56:18;9.80;99.90
9041;DHT22;4555;49.918;7.012;2022-10-31T04:58:46;9.80;99.90
9041;DHT22;4555;49.918;7.012;2022-10-31T05:01:12;12.40;99.90
9041;DHT22;4555;49.918;7.012;2022-10-31T05:03:39;9.90;99.90
9041;DHT22;4555;49.918;7.012;2022-10-31T05:06:05;10.80;99.90
9041;DHT22;4555;49.918;7.012;2022-10-31T05:08:31;9.90;99.90
9041;DHT22;4555;49.918;7.012;2022-10-31T05:11:02;9.90;99.90
9041;DHT22;4555;49.918;7.012;2022-10-31T05:13:28;12.90;99.90
9041;DHT22;4555;49.918;7.012;2022-10-31T05:15:59;9.70;99.90
9041;DHT22;4555;49.918;7.012;2022-10-31T05:18:54;9.70;99.90
9041;DHT22;4555;49.918;7.012;2022-10-31T05:21:43;9.60;99.90
9041;DHT22;4555;49.918;7.012;2022-10-31T05:24:09;10.90;99.90
9041;DHT22;4555;49.918;7.012;2022-10-31T05:26:39;9.60;99.90
9041;DHT22;4555;49.918;7.012;2022-10-31T05:29:05;9.60;99.90
9041;DHT22;4555;49.918;7.012;2022-10-31T05:31:31;9.60;99.90
9041;DHT22;4555;49.918;7.012;2022-10-31T05:33:57;11.60;99.90
9041;DHT22;4555;49.918;7.012;2022-10-31T05:36:41;10.10;99.90
9041;DHT22;4555;49.918;7.012;2022-10-31T05:39:13;9.80;99.90
9041;DHT22;4555;49.918;7.012;2022-10-31T05:41:41;9.90;99.90
9041;DHT22;4555;49.918;7.012;2022-10-31T05:44:13;9.80;99.90
9041;DHT22;4555;49.918;7.012;2022-10-31T05:46:51;9.70;99.90
9041;DHT22;4555;49.918;7.012;2022-10-31T05:49:36;9.60;99.90
9041;DHT22;4555;49.918;7.012;2022-10-31T05:52:20;9.60;99.90
9041;DHT22;4555;49.918;7.012;2022-10-31T05:54:53;9.60;99.90
9041;DHT22;4555;49.918;7.012;2022-10-31T05:57:19;9.50;99.90
9041;DHT22;4555;49.918;7.012;2022-10-31T05:59:45;9.60;99.90
9041;DHT22;4555;49.918;7.012;2022-10-31T06:02:10;9.60;99.90
9041;DHT22;4555;49.918;7.012;2022-10-31T06:04:54;9.70;99.90
9041;DHT22;4555;49.918;7.012;2022-10-31T06:07:21;9.70;99.90
9041;DHT22;4555;49.918;7.012;2022-10-31T06:09:47;9.70;99.90
9041;DHT22;4555;49.918;7.012;2022-10-31T06:12:14;9.70;99.90
9041;DHT22;4555;49.918;7.012;2022-10-31T06:14:58;9.70;99.90
9041;DHT22;4555;49.918;7.012;2022-10-31T06:17:24;9.70;99.90
9041;DHT22;4555;49.918;7.012;2022-10-31T06:19:49;9.80;99.90
9041;DHT22;4555;49.918;7.012;2022-10-31T06:22:19;9.80;99.90
9041;DHT22;4555;49.918;7.012;2022-10-31T06:24:46;9.80;99.90
9041;DHT22;4555;49.918;7.012;2022-10-31T06:27:24;12.20;99.90
9041;DHT22;4555;49.918;7.012;2022-10-31T06:29:50;9.80;99.90
9041;DHT22;4555;49.918;7.012;2022-10-31T06:32:23;11.10;99.90
9041;DHT22;4555;49.918;7.012;2022-10-31T06:34:49;12.30;99.90
9041;DHT22;4555;49.918;7.012;2022-10-31T06:37:15;10.70;99.90
9041;DHT22;4555;49.918;7.012;2022-10-31T06:39:44;9.70;99.90
9041;DHT22;4555;49.918;7.012;2022-10-31T06:42:11;9.70;99.90
9041;DHT22;4555;49.918;7.012;2022-10-31T06:44:37;9.60;99.90
9041;DHT22;4555;49.918;7.012;2022-10-31T06:47:35;9.70;99.90
9041;DHT22;4555;49.918;7.012;2022-10-31T06:50:10;9.70;99.90
9041;DHT22;4555;49.918;7.012;2022-10-31T06:52:36;11.10;99.90
9041;DHT22;4555;49.918;7.012;2022-10-31T06:55:03;9.60;99.90
9041;DHT22;4555;49.918;7.012;2022-10-31T06:57:30;9.70;99.90
9041;DHT22;4555;49.918;7.012;2022-10-31T06:59:56;9.70;99.90
9041;DHT22;4555;49.918;7.012;2022-10-31T07:02:33;9.80;99.90
9041;DHT22;4555;49.918;7.012;2022-10-31T07:05:00;9.80;99.90
9041;DHT22;4555;49.918;7.012;2022-10-31T07:07:26;9.70;99.90
9041;DHT22;4555;49.918;7.012;2022-10-31T07:09:52;9.70;99.90
9041;DHT22;4555;49.918;7.012;2022-10-31T07:12:27;9.60;99.90
9041;DHT22;4555;49.918;7.012;2022-10-31T07:14:57;9.60;99.90
9041;DHT22;4555;49.918;7.012;2022-10-31T07:17:23;9.40;99.90
9041;DHT22;4555;49.918;7.012;2022-10-31T07:19:52;9.40;99.90
9041;DHT22;4555;49.918;7.012;2022-10-31T07:22:18;13.60;99.90
9041;DHT22;4555;49.918;7.012;2022-10-31T07:24:44;12.90;99.90
9041;DHT22;4555;49.918;7.012;2022-10-31T07:27:15;9.90;99.90
9041;DHT22;4555;49.918;7.012;2022-10-31T07:29:43;13.20;99.90
9041;DHT22;4555;49.918;7.012;2022-10-31T07:32:10;13.40;99.90
9041;DHT22;4555;49.918;7.012;2022-10-31T07:34:42;10.00;99.90
9041;DHT22;4555;49.918;7.012;2022-10-31T07:37:17;10.00;99.90
9041;DHT22;4555;49.918;7.012;2022-10-31T07:39:43;11.50;99.90
9041;DHT22;4555;49.918;7.012;2022-10-31T07:42:09;10.10;99.90
9041;DHT22;4555;49.918;7.012;2022-10-31T07:44:36;10.20;99.90
9041;DHT22;4555;49.918;7.012;2022-10-31T07:47:11;10.30;99.90
9041;DHT22;4555;49.918;7.012;2022-10-31T07:49:56;10.30;99.90
9041;DHT22;4555;49.918;7.012;2022-10-31T07:52:41;10.20;99.90
9041;DHT22;4555;49.918;7.012;2022-10-31T07:55:39;10.20;99.90
9041;DHT22;4555;49.918;7.012;2022-10-31T07:58:16;10.40;99.90
9041;DHT22;4555;49.918;7.012;2022-10-31T08:00:45;10.40;99.90
9041;DHT22;4555;49.918;7.012;2022-10-31T08:03:17;12.50;99.90
9041;DHT22;4555;49.918;7.012;2022-10-31T08:06:01;10.50;99.90
9041;DHT22;4555;49.918;7.012;2022-10-31T08:08:53;10.60;99.90
9041;DHT22;4555;49.918;7.012;2022-10-31T08:11:19;10.60;99.90
9041;DHT22;4555;49.918;7.012;2022-10-31T08:13:46;10.70;99.90
9041;DHT22;4555;49.918;7.012;2022-10-31T08:16:13;10.80;99.90
9041;DHT22;4555;49.918;7.012;2022-10-31T08:18:49;13.20;99.90
9041;DHT22;4555;49.918;7.012;2022-10-31T08:21:15;12.60;99.90
9041;DHT22;4555;49.918;7.012;2022-10-31T08:23:43;13.80;99.90
9041;DHT22;4555;49.918;7.012;2022-10-31T08:26:09;10.80;99.90
9041;DHT22;4555;49.918;7.012;2022-10-31T08:28:36;10.80;99.90
9041;DHT22;4555;49.918;7.012;2022-10-31T08:31:02;10.80;99.90
9041;DHT22;4555;49.918;7.012;2022-10-31T08:33:40;12.50;99.90
9041;DHT22;4555;49.918;7.012;2022-10-31T08:36:24;11.10;99.90
9041;DHT22;4555;49.918;7.012;2022-10-31T08:39:02;11.10;99.90
9041;DHT22;4555;49.918;7.012;2022-10-31T08:41:29;11.10;99.90
9041;DHT22;4555;49.918;7.012;2022-10-31T08:43:55;11.20;99.90
9041;DHT22;4555;49.918;7.012;2022-10-31T08:46:21;11.20;99.90
9041;DHT22;4555;49.918;7.012;2022-10-31T08:48:50;13.70;99.90
9041;DHT22;4555;49.918;7.012;2022-10-31T08:51:17;14.40;99.90
9041;DHT22;4555;49.918;7.012;2022-10-31T08:53:43;11.30;99.90
9041;DHT22;4555;49.918;7.012;2022-10-31T08:56:37;11.30;99.90
9041;DHT22;4555;49.918;7.012;2022-10-31T08:59:12;11.20;99.90
9041;DHT22;4555;49.918;7.012;2022-10-31T09:02:04;11.40;99.90
9041;DHT22;4555;49.918;7.012;2022-10-31T09:04:30;11.40;99.90
9041;DHT22;4555;49.918;7.012;2022-10-31T09:06:56;11.40;99.90
9041;DHT22;4555;49.918;7.012;2022-10-31T09:09:22;12.70;99.90
9041;DHT22;4555;49.918;7.012;2022-10-31T09:11:48;11.30;99.90
9041;DHT22;4555;49.918;7.012;2022-10-31T09:14:36;11.60;99.90
9041;DHT22;4555;49.918;7.012;2022-10-31T09:17:25;11.30;99.90
9041;DHT22;4555;49.918;7.012;2022-10-31T09:20:14;11.40;99.90
9041;DHT22;4555;49.918;7.012;2022-10-31T09:22:40;11.50;99.90
9041;DHT22;4555;49.918;7.012;2022-10-31T09:25:07;11.50;99.90
9041;DHT22;4555;49.918;7.012;2022-10-31T09:27:32;11.50;99.90
9041;DHT22;4555;49.918;7.012;2022-10-31T09:29:58;11.60;99.90
9041;DHT22;4555;49.918;7.012;2022-10-31T09:32:25;12.70;99.90
9041;DHT22;4555;49.918;7.012;2022-10-31T09:34:51;11.60;99.90
9041;DHT22;4555;49.918;7.012;2022-10-31T09:37:19;13.70;99.90
9041;DHT22;4555;49.918;7.012;2022-10-31T09:39:45;11.60;99.90
9041;DHT22;4555;49.918;7.012;2022-10-31T09:51:54;11.90;99.90
9041;DHT22;4555;49.918;7.012;2022-10-31T09:54:43;11.90;99.90
9041;DHT22;4555;49.918;7.012;2022-10-31T09:57:16;12.80;99.90
9041;DHT22;4555;49.918;7.012;2022-10-31T09:59:47;12.20;99.90
9041;DHT22;4555;49.918;7.012;2022-10-31T10:02:30;13.30;99.90
9041;DHT22;4555;49.918;7.012;2022-10-31T10:05:02;12.40;99.90
9041;DHT22;4555;49.918;7.012;2022-10-31T10:16:40;12.40;99.90
9041;DHT22;4555;49.918;7.012;2022-10-31T10:19:31;12.60;99.90
9041;DHT22;4555;49.918;7.012;2022-10-31T10:27:21;12.80;99.90
9041;DHT22;4555;49.918;7.012;2022-10-31T10:30:04;12.80;99.90
9041;DHT22;4555;49.918;7.012;2022-10-31T10:33:02;12.70;99.90
9041;DHT22;4555;49.918;7.012;2022-10-31T10:35:41;12.80;99.90
9041;DHT22;4555;49.918;7.012;2022-10-31T10:38:19;13.00;99.90
9041;DHT22;4555;49.918;7.012;2022-10-31T10:40:48;12.90;99.90
9041;DHT22;4555;49.918;7.012;2022-10-31T10:46:26;12.80;99.90
9041;DHT22;4555;49.918;7.012;2022-10-31T10:49:42;13.00;99.90
9041;DHT22;4555;49.918;7.012;2022-10-31T10:52:20;13.10;99.90
9041;DHT22;4555;49.918;7.012;2022-10-31T10:58:01;13.30;99.90
9041;DHT22;4555;49.918;7.012;2022-10-31T11:00:38;13.40;99.90
9041;DHT22;4555;49.918;7.012;2022-10-31T11:03:04;13.20;99.90
9041;DHT22;4555;49.918;7.012;2022-10-31T11:05:52;13.30;99.90
9041;DHT22;4555;49.918;7.012;2022-10-31T11:08:32;13.30;99.90
9041;DHT22;4555;49.918;7.012;2022-10-31T11:11:14;13.50;99.90
9041;DHT22;4555;49.918;7.012;2022-10-31T11:13:47;13.50;99.90
9041;DHT22;4555;49.918;7.012;2022-10-31T11:18:51;16.10;99.90
9041;DHT22;4555;49.918;7.012;2022-10-31T11:21:22;13.60;99.90
9041;DHT22;4555;49.918;7.012;2022-10-31T11:23:49;14.60;99.90
9041;DHT22;4555;49.918;7.012;2022-10-31T11:26:21;13.70;99.90
9041;DHT22;4555;49.918;7.012;2022-10-31T11:28:57;15.20;99.90
9041;DHT22;4555;49.918;7.012;2022-10-31T11:31:24;13.90;99.90
9041;DHT22;4555;49.918;7.012;2022-10-31T11:34:01;13.80;99.90
9041;DHT22;4555;49.918;7.012;2022-10-31T11:36:30;13.90;99.90
9041;DHT22;4555;49.918;7.012;2022-10-31T11:38:59;15.90;99.90
9041;DHT22;4555;49.918;7.012;2022-10-31T11:41:30;15.30;99.90
9041;DHT22;4555;49.918;7.012;2022-10-31T11:44:00;14.50;99.90
9041;DHT22;4555;49.918;7.012;2022-10-31T11:46:40;15.50;99.90
9041;DHT22;4555;49.918;7.012;2022-10-31T11:49:20;15.00;81.70
9041;DHT22;4555;49.918;7.012;2022-10-31T11:51:51;15.10;99.90
9041;DHT22;4555;49.918;7.012;2022-10-31T11:54:22;15.10;7.00
9041;DHT22;4555;49.918;7.012;2022-10-31T11:56:49;16.30;34.10
9041;DHT22;4555;49.918;7.012;2022-10-31T11:59:24;16.40;58.00
9041;DHT22;4555;49.918;7.012;2022-10-31T12:01:52;15.40;8.70
9041;DHT22;4555;49.918;7.012;2022-10-31T12:04:18;15.40;45.70
9041;DHT22;4555;49.918;7.012;2022-10-31T12:06:54;15.40;12.90
9041;DHT22;4555;49.918;7.012;2022-10-31T12:09:25;15.40;27.70
9041;DHT22;4555;49.918;7.012;2022-10-31T12:20:26;15.00;98.00
9041;DHT22;4555;49.918;7.012;2022-10-31T12:23:04;15.20;99.90
9041;DHT22;4555;49.918;7.012;2022-10-31T12:45:39;15.40;1.00
9041;DHT22;4555;49.918;7.012;2022-10-31T12:48:13;15.50;1.00
9041;DHT22;4555;49.918;7.012;2022-10-31T12:51:03;15.60;1.00
9041;DHT22;4555;49.918;7.012;2022-10-31T13:04:35;15.90;1.00
9041;DHT22;4555;49.918;7.012;2022-10-31T13:07:05;15.90;1.00
9041;DHT22;4555;49.918;7.012;2022-10-31T13:12:20;15.70;10.20
9041;DHT22;4555;49.918;7.012;2022-10-31T13:14:53;17.50;6.50
9041;DHT22;4555;49.918;7.012;2022-10-31T13:17:47;15.70;37.00
9041;DHT22;4555;49.918;7.012;2022-10-31T13:20:29;15.70;91.00
9041;DHT22;4555;49.918;7.012;2022-10-31T13:23:09;15.50;96.30
9041;DHT22;4555;49.918;7.012;2022-10-31T13:25:40;15.50;99.20
9041;DHT22;4555;49.918;7.012;2022-10-31T13:28:29;16.80;99.90
9041;DHT22;4555;49.918;7.012;2022-10-31T13:30:56;15.40;99.90
9041;DHT22;4555;49.918;7.012;2022-10-31T13:33:35;15.20;99.90
9041;DHT22;4555;49.918;7.012;2022-10-31T13:41:41;15.80;98.00
9041;DHT22;4555;49.918;7.012;2022-10-31T13:44:29;16.00;33.20
9041;DHT22;4555;49.918;7.012;2022-10-31T13:47:00;16.00;6.70
9041;DHT22;4555;49.918;7.012;2022-10-31T13:57:19;16.40;1.00
9041;DHT22;4555;49.918;7.012;2022-10-31T14:02:47;17.00;1.00
9041;DHT22;4555;49.918;7.012;2022-10-31T14:05:33;17.90;1.00
9041;DHT22;4555;49.918;7.012;2022-10-31T14:08:01;18.40;1.00
9041;DHT22;4555;49.918;7.012;2022-10-31T14:10:37;18.10;1.00
9041;DHT22;4555;49.918;7.012;2022-10-31T14:13:33;17.60;1.00
9041;DHT22;4555;49.918;7.012;2022-10-31T14:16:17;17.80;1.00
9041;DHT22;4555;49.918;7.012;2022-10-31T14:18:48;17.90;1.00
9041;DHT22;4555;49.918;7.012;2022-10-31T14:23:51;18.10;1.00
9041;DHT22;4555;49.918;7.012;2022-10-31T14:28:52;18.90;1.00
9041;DHT22;4555;49.918;7.012;2022-10-31T14:31:31;19.70;1.00
9041;DHT22;4555;49.918;7.012;2022-10-31T14:34:14;17.40;1.00
9041;DHT22;4555;49.918;7.012;2022-10-31T14:42:47;17.90;1.00
9041;DHT22;4555;49.918;7.012;2022-10-31T14:45:25;19.50;99.90
9041;DHT22;4555;49.918;7.012;2022-10-31T14:48:10;18.20;1.00
9041;DHT22;4555;49.918;7.012;2022-10-31T14:50:55;18.10;99.90
9041;DHT22;4555;49.918;7.012;2022-10-31T14:53:43;20.40;99.90
9041;DHT22;4555;49.918;7.012;2022-10-31T14:56:11;17.80;1.00
9041;DHT22;4555;49.918;7.012;2022-10-31T15:01:05;19.00;1.00
9041;DHT22;4555;49.918;7.012;2022-10-31T15:03:35;17.50;1.00
9041;DHT22;4555;49.918;7.012;2022-10-31T15:06:13;19.60;1.00
9041;DHT22;4555;49.918;7.012;2022-10-31T15:08:45;17.90;1.00
9041;DHT22;4555;49.918;7.012;2022-10-31T15:11:17;17.70;1.00
9041;DHT22;4555;49.918;7.012;2022-10-31T15:13:51;19.10;1.00
9041;DHT22;4555;49.918;7.012;2022-10-31T15:16:22;17.60;1.00
9041;DHT22;4555;49.918;7.012;2022-10-31T15:18:52;17.60;1.00
9041;DHT22;4555;49.918;7.012;2022-10-31T15:21:20;18.90;1.00
9041;DHT22;4555;49.918;7.012;2022-10-31T15:23:47;18.70;1.00
9041;DHT22;4555;49.918;7.012;2022-10-31T15:26:17;17.40;1.00
9041;DHT22;4555;49.918;7.012;2022-10-31T15:28:45;16.10;1.00
9041;DHT22;4555;49.918;7.012;2022-10-31T15:31:16;18.00;1.00
9041;DHT22;4555;49.918;7.012;2022-10-31T15:33:42;19.20;1.00
9041;DHT22;4555;49.918;7.012;2022-10-31T15:36:22;19.20;1.00
9041;DHT22;4555;49.918;7.012;2022-10-31T15:38:49;16.90;1.00
9041;DHT22;4555;49.918;7.012;2022-10-31T15:41:48;18.10;1.00
9041;DHT22;4555;49.918;7.012;2022-10-31T15:44:30;16.80;51.00
9041;DHT22;4555;49.918;7.012;2022-10-31T15:47:05;17.90;73.10
9041;DHT22;4555;49.918;7.012;2022-10-31T15:54:53;16.00;99.90
9041;DHT22;4555;49.918;7.012;2022-10-31T15:57:24;17.10;99.90
9041;DHT22;4555;49.918;7.012;2022-10-31T15:59:53;16.20;99.90
9041;DHT22;4555;49.918;7.012;2022-10-31T16:02:22;16.90;99.90
9041;DHT22;4555;49.918;7.012;2022-10-31T16:05:00;15.70;99.90
9041;DHT22;4555;49.918;7.012;2022-10-31T16:07:29;15.60;99.90
9041;DHT22;4555;49.918;7.012;2022-10-31T16:09:57;15.70;99.90
9041;DHT22;4555;49.918;7.012;2022-10-31T16:12:25;15.20;99.90
9041;DHT22;4555;49.918;7.012;2022-10-31T16:14:52;15.10;99.90
9041;DHT22;4555;49.918;7.012;2022-10-31T16:17:21;17.50;99.90
9041;DHT22;4555;49.918;7.012;2022-10-31T16:22:38;16.70;99.90
9041;DHT22;4555;49.918;7.012;2022-10-31T16:25:12;14.60;99.90
9041;DHT22;4555;49.918;7.012;2022-10-31T16:27:39;14.50;99.90
9041;DHT22;4555;49.918;7.012;2022-10-31T16:32:58;14.30;99.90
9041;DHT22;4555;49.918;7.012;2022-10-31T16:37:51;14.30;99.90
9041;DHT22;4555;49.918;7.012;2022-10-31T16:40:16;15.00;99.90
9041;DHT22;4555;49.918;7.012;2022-10-31T16:42:44;14.70;99.90
9041;DHT22;4555;49.918;7.012;2022-10-31T16:45:21;14.20;99.90
9041;DHT22;4555;49.918;7.012;2022-10-31T16:47:48;14.00;99.90
9041;DHT22;4555;49.918;7.012;2022-10-31T16:50:20;16.10;99.90
9041;DHT22;4555;49.918;7.012;2022-10-31T16:52:45;15.30;99.90
9041;DHT22;4555;49.918;7.012;2022-10-31T16:55:16;15.00;99.90
9041;DHT22;4555;49.918;7.012;2022-10-31T16:57:45;13.70;99.90
9041;DHT22;4555;49.918;7.012;2022-10-31T17:00:17;14.80;99.90
9041;DHT22;4555;49.918;7.012;2022-10-31T17:02:44;13.70;99.90
9041;DHT22;4555;49.918;7.012;2022-10-31T17:05:12;14.40;99.90
9041;DHT22;4555;49.918;7.012;2022-10-31T17:07:39;15.20;99.90
9041;DHT22;4555;49.918;7.012;2022-10-31T17:10:06;13.70;99.90
9041;DHT22;4555;49.918;7.012;2022-10-31T17:12:32;13.50;99.90
9041;DHT22;4555;49.918;7.012;2022-10-31T17:14:57;13.50;99.90
9041;DHT22;4555;49.918;7.012;2022-10-31T17:17:23;13.50;99.90
9041;DHT22;4555;49.918;7.012;2022-10-31T17:19:49;14.90;99.90
9041;DHT22;4555;49.918;7.012;2022-10-31T17:22:15;13.40;99.90
9041;DHT22;4555;49.918;7.012;2022-10-31T17:24:41;15.20;99.90
9041;DHT22;4555;49.918;7.012;2022-10-31T17:27:06;13.30;99.90
9041;DHT22;4555;49.918;7.012;2022-10-31T17:29:32;15.90;99.90
9041;DHT22;4555;49.918;7.012;2022-10-31T17:31:58;13.30;99.90
9041;DHT22;4555;49.918;7.012;2022-10-31T17:34:24;13.20;99.90
9041;DHT22;4555;49.918;7.012;2022-10-31T17:36:51;15.00;99.90
9041;DHT22;4555;49.918;7.012;2022-10-31T17:39:18;13.20;99.90
9041;DHT22;4555;49.918;7.012;2022-10-31T17:41:44;13.20;99.90
9041;DHT22;4555;49.918;7.012;2022-10-31T17:44:11;13.20;99.90
9041;DHT22;4555;49.918;7.012;2022-10-31T17:46:37;16.60;99.90
9041;DHT22;4555;49.918;7.012;2022-10-31T17:49:03;13.00;99.90
9041;DHT22;4555;49.918;7.012;2022-10-31T17:51:34;13.00;99.90
9041;DHT22;4555;49.918;7.012;2022-10-31T17:53:59;13.00;99.90
9041;DHT22;4555;49.918;7.012;2022-10-31T17:56:25;13.00;99.90
9041;DHT22;4555;49.918;7.012;2022-10-31T17:58:51;14.20;99.90
9041;DHT22;4555;49.918;7.012;2022-10-31T18:01:17;15.10;99.90
9041;DHT22;4555;49.918;7.012;2022-10-31T18:03:44;12.70;99.90
9041;DHT22;4555;49.918;7.012;2022-10-31T18:06:10;13.70;99.90
9041;DHT22;4555;49.918;7.012;2022-10-31T18:08:39;12.70;99.90
9041;DHT22;4555;49.918;7.012;2022-10-31T18:11:15;12.60;99.90
9041;DHT22;4555;49.918;7.012;2022-10-31T18:13:41;12.50;99.90
9041;DHT22;4555;49.918;7.012;2022-10-31T18:16:12;14.10;99.90
9041;DHT22;4555;49.918;7.012;2022-10-31T18:18:39;12.30;99.90
9041;DHT22;4555;49.918;7.012;2022-10-31T18:21:05;12.20;99.90
9041;DHT22;4555;49.918;7.012;2022-10-31T18:23:32;12.20;99.90
9041;DHT22;4555;49.918;7.012;2022-10-31T18:25:58;12.10;99.90
9041;DHT22;4555;49.918;7.012;2022-10-31T18:28:23;13.10;99.90
9041;DHT22;4555;49.918;7.012;2022-10-31T18:30:49;12.00;99.90
9041;DHT22;4555;49.918;7.012;2022-10-31T18:33:15;13.40;99.90
9041;DHT22;4555;49.918;7.012;2022-10-31T18:35:41;13.80;99.90
9041;DHT22;4555;49.918;7.012;2022-10-31T18:38:07;14.40;99.90
9041;DHT22;4555;49.918;7.012;2022-10-31T18:40:33;11.80;99.90
9041;DHT22;4555;49.918;7.012;2022-10-31T18:43:00;14.30;99.90
9041;DHT22;4555;49.918;7.012;2022-10-31T18:45:26;11.60;99.90
9041;DHT22;4555;49.918;7.012;2022-10-31T18:47:52;11.60;99.90
9041;DHT22;4555;49.918;7.012;2022-10-31T18:50:20;12.50;99.90
9041;DHT22;4555;49.918;7.012;2022-10-31T18:52:46;13.20;99.90
9041;DHT22;4555;49.918;7.012;2022-10-31T18:55:12;13.00;99.90